Time;durP1;ratioP1;P1;durP2;ratioP2;P2;SDS_P1;SDS_P2;PMS_P1;PMS_P2;Temp;Humidity;BMP_temperature;BMP_pressure;BME280_temperature;BME280_humidity;BME280_pressure;Samples;Min_cycle;Max_cycle;Signal;HPM_P1;HPM_P2
2021/11/07 00:04:39;;;;;;;23.90;15.60;;;7.80;69.50;;;;;;5051353;28;20428;-46
2021/11/07 00:09:46;;;;;;;24.20;15.27;;;7.70;70.80;;;;;;5052953;28;20443;-51
2021/11/07 00:12:37;;;;;;;22.27;14.80;;;7.80;71.20;;;;;;5046794;28;20201;-49
2021/11/07 00:15:01;;;;;;;27.20;16.17;;;8.20;70.20;;;;;;5061635;28;20495;-49
2021/11/07 00:17:29;;;;;;;21.77;15.17;;;8.60;69.30;;;;;;5054187;28;20926;-50
2021/11/07 00:20:17;;;;;;;22.93;15.13;;;8.70;66.90;;;;;;5059623;28;20632;-51
2021/11/07 00:22:53;;;;;;;20.43;13.70;;;8.50;66.50;;;;;;5045632;28;20442;-51
2021/11/07 00:25:26;;;;;;;19.67;13.67;;;8.60;66.40;;;;;;5041694;28;20450;-50
2021/11/07 00:28:02;;;;;;;21.87;14.23;;;8.70;65.80;;;;;;5052611;28;20441;-48
2021/11/07 00:36:15;;;;;;;19.47;12.83;;;9.10;64.10;;;;;;5019153;28;20483;-50
2021/11/07 00:46:27;;;;;;;24.87;14.30;;;9.40;62.90;;;;;;5049142;28;20446;-50
2021/11/07 00:49:01;;;;;;;21.93;13.10;;;9.30;62.50;;;;;;5064692;28;20199;-50
2021/11/07 01:02:00;;;;;;;19.70;13.30;;;9.40;62.70;;;;;;5048069;28;20806;-49
2021/11/07 01:04:29;;;;;;;19.00;13.00;;;9.10;62.90;;;;;;5047188;28;20501;-50
2021/11/07 01:06:54;;;;;;;21.83;14.33;;;9.30;63.40;;;;;;5048710;28;20442;-50
2021/11/07 01:09:20;;;;;;;19.33;14.17;;;9.20;62.50;;;;;;5046603;28;20435;-49
2021/11/07 01:11:46;;;;;;;19.87;14.00;;;9.00;63.70;;;;;;5053164;28;20239;-51
2021/11/07 01:14:13;;;;;;;19.10;12.43;;;9.10;63.90;;;;;;5049584;28;21109;-50
2021/11/07 01:16:40;;;;;;;21.33;15.13;;;9.30;63.40;;;;;;5051324;28;20442;-48
2021/11/07 01:19:06;;;;;;;22.17;14.67;;;9.40;62.80;;;;;;5047259;28;20474;-50
2021/11/07 01:21:36;;;;;;;17.47;13.87;;;9.40;62.60;;;;;;5058606;28;20524;-47
2021/11/07 01:24:09;;;;;;;18.80;13.37;;;9.10;62.90;;;;;;5049981;28;20203;-46
2021/11/07 01:26:39;;;;;;;23.73;14.27;;;9.00;63.60;;;;;;5053829;28;20924;-47
2021/11/07 01:29:18;;;;;;;20.53;13.07;;;8.80;64.20;;;;;;5051512;28;20542;-47
2021/11/07 01:31:45;;;;;;;21.77;14.27;;;8.60;65.20;;;;;;5052885;28;20495;-50
2021/11/07 01:34:19;;;;;;;23.13;14.40;;;8.50;65.60;;;;;;5051993;28;20508;-50
2021/11/07 01:36:58;;;;;;;17.97;12.57;;;8.40;65.50;;;;;;5056182;28;20469;-49
2021/11/07 01:39:38;;;;;;;19.43;13.43;;;7.90;66.80;;;;;;5049616;28;20451;-49
2021/11/07 01:42:16;;;;;;;20.53;13.77;;;7.80;68.10;;;;;;5060460;28;20517;-48
2021/11/07 01:44:51;;;;;;;21.07;13.23;;;7.60;69.00;;;;;;5050549;28;20451;-49
2021/11/07 01:47:18;;;;;;;17.33;12.10;;;8.00;68.80;;;;;;5054041;28;20802;-47
2021/11/07 01:49:45;;;;;;;18.23;12.97;;;8.10;67.20;;;;;;5053713;28;20439;-47
2021/11/07 01:52:12;;;;;;;18.20;12.10;;;8.10;67.40;;;;;;5051527;28;20506;-50
2021/11/07 01:57:19;;;;;;;20.23;13.17;;;7.80;68.40;;;;;;5051776;28;20450;-51
2021/11/07 01:59:47;;;;;;;18.40;12.60;;;7.80;69.20;;;;;;5055009;28;20478;-47
2021/11/07 02:02:13;;;;;;;25.83;15.70;;;8.10;67.90;;;;;;5052241;28;20814;-49
2021/11/07 02:04:44;;;;;;;20.33;13.47;;;8.30;66.60;;;;;;5051302;28;20453;-49
2021/11/07 02:07:10;;;;;;;20.57;13.20;;;8.10;66.80;;;;;;5050322;28;20470;-50
2021/11/07 02:09:37;;;;;;;21.10;11.70;;;8.20;66.50;;;;;;5049017;28;20555;-50
2021/11/07 02:12:04;;;;;;;18.03;12.67;;;8.40;66.00;;;;;;5049179;28;20497;-50
2021/11/07 02:14:31;;;;;;;15.50;12.23;;;8.30;65.40;;;;;;5053265;28;20540;-47
2021/11/07 02:16:56;;;;;;;18.70;12.50;;;7.80;67.30;;;;;;5050067;28;20462;-50
2021/11/07 02:19:22;;;;;;;20.00;13.37;;;7.70;67.90;;;;;;5060122;28;20466;-50
2021/11/07 02:21:48;;;;;;;16.60;11.90;;;7.70;68.60;;;;;;5045734;28;20259;-50
2021/11/07 02:24:16;;;;;;;18.00;11.73;;;7.70;68.50;;;;;;5049758;28;20565;-46
2021/11/07 02:26:44;;;;;;;18.30;11.80;;;8.00;67.70;;;;;;5041777;28;20943;-48
2021/11/07 02:29:10;;;;;;;18.13;13.10;;;8.10;67.00;;;;;;5044193;28;20450;-50
2021/11/07 02:31:36;;;;;;;16.80;12.17;;;8.30;66.50;;;;;;5043778;28;20530;-48
2021/11/07 02:34:02;;;;;;;18.80;13.10;;;8.40;65.90;;;;;;5050133;28;20530;-47
2021/11/07 02:36:28;;;;;;;17.70;12.23;;;8.00;65.70;;;;;;5052483;28;20872;-50
2021/11/07 02:38:53;;;;;;;17.47;12.80;;;7.70;67.40;;;;;;5050338;28;20438;-48
2021/11/07 02:41:19;;;;;;;17.20;13.30;;;7.70;67.80;;;;;;5048102;28;20185;-50
2021/11/07 02:43:49;;;;;;;20.10;13.20;;;7.90;67.10;;;;;;5053607;28;20185;-49
2021/11/07 02:46:16;;;;;;;15.83;12.30;;;8.20;66.40;;;;;;5063970;28;20836;-50
2021/11/07 02:48:47;;;;;;;16.53;12.50;;;8.30;65.60;;;;;;5052587;28;20535;-50
2021/11/07 02:51:13;;;;;;;19.00;12.90;;;8.50;65.10;;;;;;5048252;28;20540;-49
2021/11/07 02:53:40;;;;;;;19.50;12.47;;;8.60;64.30;;;;;;5050700;28;20521;-50
2021/11/07 02:56:06;;;;;;;21.77;14.60;;;8.40;64.30;;;;;;5046137;28;20589;-48
2021/11/07 02:58:33;;;;;;;19.60;13.50;;;8.50;64.10;;;;;;5048493;28;20808;-50
2021/11/07 03:00:59;;;;;;;15.57;12.00;;;8.50;63.70;;;;;;5045412;28;20817;-51
2021/11/07 03:03:25;;;;;;;19.83;14.43;;;8.50;63.90;;;;;;5038916;28;20448;-47
2021/11/07 03:05:51;;;;;;;18.37;12.30;;;8.70;63.90;;;;;;5048230;28;20446;-50
2021/11/07 03:08:16;;;;;;;16.37;11.47;;;8.50;63.40;;;;;;5051119;28;20435;-50
2021/11/07 03:10:42;;;;;;;17.43;12.50;;;8.70;63.70;;;;;;5047327;28;20189;-51
2021/11/07 03:13:12;;;;;;;19.40;13.13;;;8.70;63.20;;;;;;5046852;28;20311;-46
2021/11/07 03:15:40;;;;;;;19.63;14.00;;;8.70;63.30;;;;;;5050698;28;20235;-47
2021/11/07 03:18:07;;;;;;;18.03;11.70;;;8.80;63.10;;;;;;5041241;28;20432;-48
2021/11/07 03:20:33;;;;;;;15.27;11.67;;;8.90;62.50;;;;;;5038209;28;20483;-50
2021/11/07 03:22:59;;;;;;;16.07;12.23;;;9.00;62.10;;;;;;5035949;28;20930;-50
2021/11/07 03:25:25;;;;;;;17.00;13.00;;;9.10;61.80;;;;;;5040078;28;20205;-50
2021/11/07 03:27:52;;;;;;;15.87;11.27;;;9.10;61.90;;;;;;5038849;28;20440;-50
2021/11/07 03:33:07;;;;;;;18.23;13.70;;;9.00;60.70;;;;;;5040081;28;20940;-50
2021/11/07 03:35:33;;;;;;;17.40;12.00;;;9.00;60.90;;;;;;5040561;28;20519;-51
2021/11/07 03:37:58;;;;;;;18.00;11.50;;;9.00;61.00;;;;;;5043836;28;20517;-47
2021/11/07 03:40:26;;;;;;;18.57;12.20;;;9.00;61.00;;;;;;5045626;28;20208;-49
2021/11/07 03:42:52;;;;;;;16.83;11.30;;;9.10;60.70;;;;;;5042169;28;20212;-48
2021/11/07 03:45:19;;;;;;;17.73;11.60;;;9.20;61.30;;;;;;5046797;28;20451;-48
2021/11/07 03:47:45;;;;;;;16.80;11.67;;;9.20;60.30;;;;;;5044966;28;20433;-48
2021/11/07 03:50:11;;;;;;;15.00;11.97;;;9.30;60.00;;;;;;5040616;28;20902;-49
2021/11/07 03:52:37;;;;;;;16.30;11.60;;;9.30;60.00;;;;;;5047858;28;20203;-50
2021/11/07 03:55:05;;;;;;;15.20;11.67;;;9.30;59.70;;;;;;5038067;28;20894;-49
2021/11/07 03:57:31;;;;;;;14.40;10.70;;;9.30;59.30;;;;;;5036643;28;20679;-49
2021/11/07 03:59:56;;;;;;;13.60;10.53;;;9.20;59.10;;;;;;5040670;28;20427;-50
2021/11/07 04:02:22;;;;;;;16.53;12.23;;;9.20;59.10;;;;;;5069126;28;20881;-49
2021/11/07 04:04:48;;;;;;;14.10;10.47;;;9.20;58.90;;;;;;5041438;28;20207;-47
2021/11/07 04:07:14;;;;;;;14.10;10.27;;;9.20;58.90;;;;;;5046589;28;20280;-51
2021/11/07 04:09:40;;;;;;;13.43;11.30;;;9.20;58.90;;;;;;5035630;28;20470;-50
2021/11/07 04:12:07;;;;;;;13.70;10.83;;;9.10;59.00;;;;;;5045769;28;20462;-49
2021/11/07 04:14:34;;;;;;;13.80;10.70;;;9.00;59.30;;;;;;5051963;28;20491;-49
2021/11/07 04:17:05;;;;;;;15.40;10.77;;;8.80;59.70;;;;;;5045265;28;20602;-50
2021/11/07 04:19:31;;;;;;;18.20;12.47;;;8.70;59.80;;;;;;5044618;28;20816;-50
2021/11/07 04:22:02;;;;;;;16.80;13.23;;;8.70;60.20;;;;;;5045306;28;20444;-45
2021/11/07 04:24:28;;;;;;;14.40;10.33;;;8.70;59.90;;;;;;5042195;28;20193;-47
2021/11/07 04:26:54;;;;;;;14.20;10.50;;;8.80;59.70;;;;;;5045657;28;21016;-48
2021/11/07 04:29:20;;;;;;;15.83;12.10;;;8.80;59.60;;;;;;5052341;28;20439;-47
2021/11/07 04:31:45;;;;;;;13.53;10.20;;;8.90;59.50;;;;;;5054353;28;20243;-46
2021/11/07 04:34:11;;;;;;;14.33;10.40;;;8.90;59.30;;;;;;5048710;28;20249;-47
2021/11/07 04:36:37;;;;;;;11.87;10.20;;;9.00;59.20;;;;;;5055809;28;20210;-44
2021/11/07 04:39:04;;;;;;;15.00;11.00;;;9.00;59.10;;;;;;5040192;28;20197;-47
2021/11/07 04:41:29;;;;;;;13.23;9.83;;;9.00;59.00;;;;;;5039612;28;20196;-44
2021/11/07 04:43:55;;;;;;;13.77;9.70;;;8.80;59.00;;;;;;5044672;28;20500;-47
2021/11/07 04:46:20;;;;;;;11.63;9.83;;;8.50;59.70;;;;;;5044769;28;20197;-45
2021/11/07 04:48:48;;;;;;;13.50;10.90;;;8.40;60.40;;;;;;5042213;28;20197;-47
2021/11/07 04:51:15;;;;;;;13.07;10.47;;;8.20;61.60;;;;;;5036225;28;20193;-47
2021/11/07 04:53:41;;;;;;;14.53;10.27;;;8.30;61.60;;;;;;5047680;28;20963;-50
2021/11/07 04:56:06;;;;;;;11.57;9.97;;;8.40;61.00;;;;;;5055701;28;20526;-46
2021/11/07 04:58:33;;;;;;;12.50;9.57;;;8.50;60.90;;;;;;5052418;28;20475;-49
2021/11/07 05:00:59;;;;;;;12.77;9.37;;;8.40;61.20;;;;;;5047287;28;20252;-48
2021/11/07 05:03:24;;;;;;;13.53;10.73;;;8.30;61.40;;;;;;5040838;28;20463;-50
2021/11/07 05:05:50;;;;;;;15.40;10.27;;;8.40;61.30;;;;;;5053458;28;20263;-50
2021/11/07 05:08:16;;;;;;;11.90;9.73;;;8.40;60.90;;;;;;5050795;28;20553;-51
2021/11/07 05:10:41;;;;;;;13.53;10.27;;;8.00;61.30;;;;;;5062923;28;20538;-50
2021/11/07 05:13:10;;;;;;;14.67;11.30;;;7.90;62.60;;;;;;5051796;28;21025;-51
2021/11/07 05:15:36;;;;;;;11.93;10.53;;;7.80;63.20;;;;;;5043201;28;20224;-49
2021/11/07 05:18:02;;;;;;;15.70;10.60;;;7.60;63.90;;;;;;5054488;28;20501;-50
2021/11/07 05:20:28;;;;;;;14.20;10.87;;;7.40;64.90;;;;;;5049301;28;20236;-50
2021/11/07 05:22:54;;;;;;;12.13;9.63;;;7.50;64.90;;;;;;5050162;28;20984;-49
2021/11/07 05:25:20;;;;;;;12.17;9.60;;;7.80;64.40;;;;;;5053244;28;20720;-49
2021/11/07 05:27:45;;;;;;;16.10;10.80;;;7.80;63.50;;;;;;5051953;28;20529;-48
2021/11/07 05:30:14;;;;;;;15.60;10.87;;;7.70;63.90;;;;;;5054891;28;20204;-50
2021/11/07 05:32:40;;;;;;;13.77;10.50;;;7.70;63.80;;;;;;5051420;28;20188;-47
2021/11/07 05:35:06;;;;;;;14.73;10.60;;;7.50;64.40;;;;;;5053487;28;20499;-50
2021/11/07 05:37:31;;;;;;;13.10;9.67;;;7.50;64.50;;;;;;5045786;28;20640;-49
2021/11/07 05:39:57;;;;;;;12.67;9.47;;;7.60;64.40;;;;;;5048937;28;20500;-50
2021/11/07 05:42:23;;;;;;;13.10;9.60;;;7.90;63.80;;;;;;5046641;28;20255;-47
2021/11/07 05:44:49;;;;;;;14.27;10.23;;;8.00;62.60;;;;;;5044501;28;20230;-48
2021/11/07 05:47:14;;;;;;;12.63;10.40;;;7.90;62.70;;;;;;5048596;28;20201;-46
2021/11/07 05:49:40;;;;;;;13.77;10.53;;;7.80;63.10;;;;;;5047606;28;20485;-51
2021/11/07 05:52:06;;;;;;;14.03;11.30;;;7.60;63.80;;;;;;5056082;28;20196;-49
2021/11/07 05:54:32;;;;;;;14.43;11.20;;;7.20;64.70;;;;;;5050441;28;20252;-50
2021/11/07 05:57:00;;;;;;;14.23;10.30;;;7.10;64.90;;;;;;5044674;28;20569;-45
2021/11/07 05:59:28;;;;;;;16.27;10.93;;;7.10;65.80;;;;;;5044768;28;20447;-48
2021/11/07 06:01:54;;;;;;;13.00;9.83;;;6.90;66.10;;;;;;5039057;28;20448;-48
2021/11/07 06:04:20;;;;;;;12.30;9.43;;;7.00;65.90;;;;;;5039727;28;20428;-45
2021/11/07 06:06:46;;;;;;;14.27;10.20;;;7.00;66.20;;;;;;5047396;28;20477;-48
2021/11/07 06:09:12;;;;;;;13.30;10.43;;;7.20;65.80;;;;;;5050779;28;20189;-46
2021/11/07 06:11:38;;;;;;;12.57;9.40;;;7.20;65.40;;;;;;5051789;28;20823;-48
2021/11/07 06:14:04;;;;;;;15.70;11.73;;;7.40;64.80;;;;;;5036848;28;20216;-46
2021/11/07 06:16:29;;;;;;;16.80;10.60;;;7.60;64.10;;;;;;5055250;28;20201;-51
2021/11/07 06:18:55;;;;;;;12.80;9.43;;;7.40;63.80;;;;;;5050654;28;20469;-47
2021/11/07 06:21:22;;;;;;;13.57;10.73;;;7.40;64.20;;;;;;5050282;28;20192;-47
2021/11/07 06:23:48;;;;;;;14.83;9.97;;;7.00;65.00;;;;;;5048717;28;20664;-49
2021/11/07 06:26:15;;;;;;;15.03;10.70;;;7.00;65.80;;;;;;5038136;28;20559;-45
2021/11/07 06:28:40;;;;;;;12.03;9.47;;;6.90;66.50;;;;;;5049286;28;20433;-46
2021/11/07 06:31:07;;;;;;;11.83;9.30;;;7.00;66.60;;;;;;5039934;28;20471;-48
2021/11/07 06:33:34;;;;;;;16.20;9.50;;;7.10;68.70;;;;;;5060081;28;20192;-46
2021/11/07 06:35:59;;;;;;;16.17;11.17;;;7.50;69.60;;;;;;5058410;28;20982;-49
2021/11/07 06:38:25;;;;;;;13.20;9.40;;;7.90;69.80;;;;;;5050405;28;20443;-49
2021/11/07 06:40:52;;;;;;;11.53;9.57;;;8.30;66.40;;;;;;5052556;28;20222;-46
2021/11/07 06:43:17;;;;;;;14.10;10.10;;;8.50;63.80;;;;;;5049364;28;20265;-46
2021/11/07 06:45:43;;;;;;;13.60;10.33;;;8.70;63.20;;;;;;5050802;28;20899;-49
2021/11/07 06:48:09;;;;;;;13.27;10.10;;;9.20;60.80;;;;;;5050746;28;20199;-49
2021/11/07 06:50:35;;;;;;;15.53;9.27;;;9.80;59.20;;;;;;5051693;28;20295;-51
2021/11/07 06:53:01;;;;;;;10.60;9.30;;;10.20;57.00;;;;;;5041091;28;20189;-46
2021/11/07 06:55:28;;;;;;;9.13;8.10;;;10.90;56.10;;;;;;5046869;28;20512;-50
2021/11/07 06:57:54;;;;;;;12.30;9.40;;;11.60;54.50;;;;;;5048364;28;20488;-46
2021/11/07 07:00:24;;;;;;;11.37;9.40;;;12.10;52.80;;;;;;5049682;28;20462;-51
2021/11/07 07:02:49;;;;;;;9.97;8.60;;;12.40;51.50;;;;;;5050245;28;20510;-47
2021/11/07 07:05:18;;;;;;;10.80;9.60;;;12.70;50.90;;;;;;5044425;28;20513;-47
2021/11/07 07:07:48;;;;;;;10.80;8.93;;;12.80;49.50;;;;;;5047097;28;20242;-47
2021/11/07 07:10:26;;;;;;;10.77;9.67;;;12.90;49.90;;;;;;5048834;28;20484;-50
2021/11/07 07:15:27;;;;;;;11.53;10.23;;;13.40;49.60;;;;;;5041362;28;20896;-47
2021/11/07 07:18:05;;;;;;;10.70;9.57;;;13.60;49.50;;;;;;5050856;28;20546;-50
2021/11/07 07:28:35;;;;;;;10.13;9.03;;;13.50;49.50;;;;;;5033642;28;20800;-50
2021/11/07 07:34:07;;;;;;;10.07;8.97;;;13.50;49.00;;;;;;5035292;28;20435;-47
2021/11/07 07:36:33;;;;;;;11.20;10.10;;;12.80;49.90;;;;;;5045206;28;20436;-47
2021/11/07 07:38:59;;;;;;;11.83;9.33;;;12.90;50.30;;;;;;5043859;28;20451;-47
2021/11/07 07:41:25;;;;;;;10.57;8.70;;;12.90;50.50;;;;;;5056554;28;20604;-49
2021/11/07 07:43:51;;;;;;;11.43;7.90;;;12.60;51.00;;;;;;5051091;28;20185;-45
2021/11/07 07:46:19;;;;;;;10.90;8.40;;;12.60;51.50;;;;;;5042355;28;20443;-47
2021/11/07 07:48:46;;;;;;;11.63;9.23;;;12.70;51.10;;;;;;5061776;28;20970;-47
2021/11/07 07:51:15;;;;;;;10.97;9.70;;;12.60;51.70;;;;;;5065556;28;20815;-46
2021/11/07 07:53:42;;;;;;;10.20;9.07;;;12.50;51.40;;;;;;5051159;28;20485;-47
2021/11/07 07:56:08;;;;;;;10.20;9.13;;;12.70;51.70;;;;;;5051415;28;20884;-47
2021/11/07 07:58:35;;;;;;;11.10;8.33;;;12.90;51.20;;;;;;5051927;28;20797;-48
2021/11/07 08:01:02;;;;;;;11.33;9.03;;;13.10;51.20;;;;;;5051149;28;20795;-47
2021/11/07 08:03:28;;;;;;;12.17;9.57;;;13.00;51.10;;;;;;5049835;28;20477;-46
2021/11/07 08:05:54;;;;;;;10.17;9.10;;;12.60;51.50;;;;;;5050641;28;20419;-46
2021/11/07 08:08:19;;;;;;;10.20;8.27;;;12.10;52.80;;;;;;5051709;28;20923;-49
2021/11/07 08:10:46;;;;;;;10.63;9.10;;;11.90;54.10;;;;;;5050905;28;20272;-48
2021/11/07 08:13:12;;;;;;;12.30;7.70;;;12.20;53.70;;;;;;5052031;28;20265;-45
2021/11/07 08:15:38;;;;;;;10.00;8.10;;;12.40;53.60;;;;;;5051043;28;20479;-50
2021/11/07 08:18:04;;;;;;;9.63;7.60;;;12.50;52.90;;;;;;5051375;28;20200;-51
2021/11/07 08:20:29;;;;;;;12.83;8.93;;;12.50;52.80;;;;;;5050639;28;20730;-49
2021/11/07 08:22:55;;;;;;;11.60;8.60;;;12.60;52.70;;;;;;5051234;28;20927;-49
2021/11/07 08:25:21;;;;;;;11.20;9.00;;;12.60;52.50;;;;;;5051142;28;20185;-51
2021/11/07 08:27:50;;;;;;;11.50;9.50;;;12.60;52.60;;;;;;5051076;28;20193;-50
2021/11/07 08:30:21;;;;;;;11.13;8.77;;;12.40;53.00;;;;;;5048949;28;20914;-50
2021/11/07 08:32:47;;;;;;;10.30;9.07;;;12.30;53.50;;;;;;5051270;28;20439;-49
2021/11/07 08:35:14;;;;;;;10.27;8.67;;;12.50;53.40;;;;;;5050791;28;21357;-51
2021/11/07 08:37:55;;;;;;;10.17;8.73;;;12.30;53.50;;;;;;5051013;28;20817;-50
2021/11/07 08:40:28;;;;;;;11.13;8.90;;;12.10;53.70;;;;;;5041890;28;20441;-50
2021/11/07 08:54:28;;;;;;;10.87;9.00;;;12.10;53.90;;;;;;5051387;28;20552;-51
2021/11/07 09:10:48;;;;;;;7.83;7.03;;;12.30;53.50;;;;;;5040525;28;20431;-51
2021/11/07 09:13:15;;;;;;;9.40;7.27;;;12.30;53.40;;;;;;5054643;28;20484;-46
2021/11/07 09:15:44;;;;;;;8.33;6.93;;;12.30;53.30;;;;;;5054300;28;20248;-48
2021/11/07 09:18:10;;;;;;;7.43;6.63;;;12.20;53.30;;;;;;5054691;28;20799;-46
2021/11/07 09:31:40;;;;;;;6.40;5.23;;;12.80;52.70;;;;;;5051678;28;20537;-49
2021/11/07 09:34:17;;;;;;;12.83;6.03;;;13.20;51.70;;;;;;5052149;28;20520;-48
2021/11/07 09:37:05;;;;;;;6.93;5.20;;;13.50;51.10;;;;;;5052670;28;20477;-50
2021/11/07 09:39:48;;;;;;;7.70;6.20;;;13.80;50.60;;;;;;5054295;28;20784;-46
2021/11/07 09:44:41;;;;;;;5.07;4.53;;;14.00;49.70;;;;;;5052321;28;20449;-48
2021/11/07 09:47:09;;;;;;;5.47;4.90;;;14.00;49.00;;;;;;5048878;28;20204;-46
2021/11/07 09:49:44;;;;;;;5.80;5.20;;;14.00;49.10;;;;;;5052273;28;20437;-48
2021/11/07 09:52:13;;;;;;;5.57;5.07;;;14.10;49.50;;;;;;5051487;28;20449;-48
2021/11/07 09:54:45;;;;;;;5.10;4.60;;;14.00;48.90;;;;;;5054129;28;20493;-48
2021/11/07 09:57:12;;;;;;;4.97;4.47;;;13.90;48.20;;;;;;5050574;28;20829;-47
2021/11/07 09:59:38;;;;;;;5.20;4.30;;;13.70;48.90;;;;;;5053793;28;20985;-50
2021/11/07 10:02:04;;;;;;;4.90;4.10;;;13.70;48.50;;;;;;5050960;28;20424;-48
2021/11/07 10:04:32;;;;;;;6.60;5.20;;;13.70;48.60;;;;;;5054298;28;20941;-47
2021/11/07 10:07:19;;;;;;;6.07;5.43;;;13.60;48.80;;;;;;5053592;28;20184;-46
2021/11/07 10:09:48;;;;;;;5.97;4.80;;;13.60;49.10;;;;;;5053339;28;20426;-47
2021/11/07 10:12:22;;;;;;;6.53;5.10;;;13.70;49.00;;;;;;5051653;28;20466;-48
2021/11/07 10:14:54;;;;;;;7.20;4.77;;;13.60;48.80;;;;;;5048025;28;20517;-44
2021/11/07 10:17:49;;;;;;;5.60;4.20;;;13.60;48.90;;;;;;5051996;28;20489;-46
2021/11/07 10:20:32;;;;;;;4.77;3.90;;;13.50;49.10;;;;;;5052068;28;20478;-51
2021/11/07 10:23:11;;;;;;;5.23;3.90;;;13.60;49.40;;;;;;5052560;28;20436;-48
2021/11/07 10:25:47;;;;;;;5.00;4.53;;;13.60;49.00;;;;;;5044030;28;20441;-48
2021/11/07 10:28:28;;;;;;;4.30;3.83;;;13.50;49.10;;;;;;5052145;28;20423;-46
2021/11/07 10:31:02;;;;;;;5.40;4.90;;;13.40;49.50;;;;;;5052525;28;20431;-46
2021/11/07 10:33:58;;;;;;;4.43;4.03;;;13.60;49.80;;;;;;5052661;28;20770;-46
2021/11/07 10:45:14;;;;;;;5.50;4.70;;;14.20;49.50;;;;;;5051289;28;20423;-50
2021/11/07 10:53:00;;;;;;;4.27;3.90;;;14.50;49.50;;;;;;5041540;28;20439;-46
2021/11/07 10:55:30;;;;;;;4.30;3.90;;;14.70;49.00;;;;;;5045055;28;20989;-43
2021/11/07 10:57:58;;;;;;;3.73;3.43;;;14.80;48.70;;;;;;5058890;28;20442;-44
2021/11/07 11:00:34;;;;;;;4.53;4.13;;;14.90;49.10;;;;;;5041362;28;20861;-48
2021/11/07 11:03:05;;;;;;;4.40;4.00;;;14.90;48.60;;;;;;5045543;28;20522;-47
2021/11/07 11:05:45;;;;;;;4.00;3.60;;;14.90;48.80;;;;;;5045139;28;20463;-47
2021/11/07 11:08:22;;;;;;;4.77;4.37;;;15.00;48.90;;;;;;5049046;28;20445;-48
2021/11/07 11:11:43;;;;;;;3.80;3.50;;;15.10;48.50;;;;;;5038956;28;20462;-48
2021/11/07 11:19:43;;;;;;;5.80;3.60;;;15.40;48.30;;;;;;5043772;28;20532;-48
2021/11/07 11:33:45;;;;;;;4.03;3.63;;;15.40;48.40;;;;;;5044952;28;20442;-48
2021/11/07 11:36:05;;;;;;;6.23;3.27;;;15.60;48.00;;;;;;5036159;28;20491;-46
2021/11/07 11:38:42;;;;;;;3.40;3.10;;;15.70;48.00;;;;;;5036080;28;20473;-45
2021/11/07 11:41:16;;;;;;;4.37;3.97;;;15.90;47.80;;;;;;5050012;28;20443;-48
2021/11/07 11:43:51;;;;;;;5.07;4.57;;;15.90;47.20;;;;;;5043426;28;20443;-45
2021/11/07 11:46:41;;;;;;;6.37;4.10;;;15.90;47.70;;;;;;5044280;28;20447;-47
2021/11/07 12:05:45;;;;;;;3.70;3.30;;;16.60;47.30;;;;;;5049648;28;20447;-49
2021/11/07 12:08:24;;;;;;;3.73;3.43;;;16.70;47.00;;;;;;5039538;28;20440;-44
2021/11/07 12:11:11;;;;;;;3.90;3.60;;;16.80;47.10;;;;;;5041922;28;20442;-45
2021/11/07 12:16:12;;;;;;;4.80;3.87;;;17.00;46.50;;;;;;5049559;28;20578;-44
2021/11/07 12:19:04;;;;;;;5.87;4.90;;;17.10;46.20;;;;;;5059791;28;20935;-44
2021/11/07 12:21:50;;;;;;;9.70;8.70;;;17.50;46.40;;;;;;5046638;28;20435;-44
2021/11/07 12:24:22;;;;;;;4.00;3.70;;;17.70;45.70;;;;;;5045792;28;20443;-44
2021/11/07 12:26:48;;;;;;;6.50;3.60;;;17.70;45.40;;;;;;5040599;28;20430;-45
2021/11/07 12:29:38;;;;;;;3.50;3.20;;;17.80;45.80;;;;;;5036408;28;20439;-48
2021/11/07 12:32:06;;;;;;;3.50;3.17;;;17.80;45.70;;;;;;5031748;28;20436;-45
2021/11/07 12:35:22;;;;;;;2.77;2.57;;;17.90;45.90;;;;;;5039280;28;20466;-44
2021/11/07 12:40:46;;;;;;;3.27;3.03;;;18.00;45.70;;;;;;4984423;28;20485;-44
2021/11/07 12:43:37;;;;;;;4.40;4.00;;;18.00;45.90;;;;;;5027863;28;20442;-44
2021/11/07 12:49:07;;;;;;;3.13;2.87;;;18.00;46.50;;;;;;5064033;28;21141;-44
2021/11/07 12:51:38;;;;;;;3.40;3.07;;;18.00;46.70;;;;;;5050642;28;20439;-47
2021/11/07 12:54:24;;;;;;;2.70;2.50;;;18.00;46.80;;;;;;5046650;28;20827;-46
2021/11/07 12:57:06;;;;;;;5.10;3.90;;;18.00;47.10;;;;;;5045395;28;20474;-44
2021/11/07 12:59:40;;;;;;;2.87;2.67;;;18.00;47.30;;;;;;5038686;28;20447;-48
2021/11/07 13:02:13;;;;;;;2.30;2.00;;;17.90;46.50;;;;;;5039157;28;20465;-45
2021/11/07 13:04:53;;;;;;;2.10;2.00;;;17.70;46.40;;;;;;5044415;28;20454;-44
2021/11/07 13:07:25;;;;;;;3.30;2.10;;;17.80;47.10;;;;;;5047004;28;20452;-44
2021/11/07 13:09:58;;;;;;;1.83;0.97;;;17.70;47.40;;;;;;5041994;28;20442;-47
2021/11/07 13:12:48;;;;;;;1.23;1.13;;;17.30;49.70;;;;;;5039833;28;20919;-44
2021/11/07 13:23:51;;;;;;;1.40;1.30;;;16.80;55.20;;;;;;5043318;28;20443;-45
2021/11/07 13:26:30;;;;;;;1.23;0.90;;;16.70;56.60;;;;;;5032195;28;20935;-44
2021/11/07 13:29:09;;;;;;;3.90;1.30;;;16.80;57.00;;;;;;5038287;28;20992;-44
2021/11/07 13:31:44;;;;;;;1.47;1.37;;;16.60;57.50;;;;;;5042471;28;20919;-45
2021/11/07 13:34:18;;;;;;;2.40;1.17;;;16.60;57.70;;;;;;5048315;28;20454;-44
2021/11/07 13:36:45;;;;;;;3.07;1.23;;;16.50;58.50;;;;;;5046050;28;20818;-48
2021/11/07 13:39:13;;;;;;;1.63;1.43;;;16.60;58.30;;;;;;5042354;28;20431;-48
2021/11/07 13:41:41;;;;;;;2.63;1.93;;;16.20;58.20;;;;;;5043398;28;20432;-47
2021/11/07 13:44:21;;;;;;;0.90;0.90;;;16.10;58.50;;;;;;5050286;28;20941;-45
2021/11/07 13:47:00;;;;;;;1.27;0.90;;;16.10;58.00;;;;;;5050065;28;20438;-44
2021/11/07 13:49:27;;;;;;;2.30;1.23;;;15.70;58.00;;;;;;5044721;28;20489;-47
2021/11/07 13:52:11;;;;;;;1.67;1.40;;;15.60;58.30;;;;;;5048177;28;20937;-44
2021/11/07 13:54:38;;;;;;;3.30;2.17;;;15.80;58.10;;;;;;5050549;28;20583;-46
2021/11/07 13:57:04;;;;;;;1.73;1.27;;;15.80;58.20;;;;;;5049915;28;20434;-44
2021/11/07 13:59:36;;;;;;;1.33;1.17;;;15.90;58.00;;;;;;5053348;28;20456;-47
2021/11/07 14:02:10;;;;;;;1.30;1.20;;;15.70;57.60;;;;;;5044730;28;20457;-47
2021/11/07 14:04:46;;;;;;;1.43;1.33;;;15.80;57.90;;;;;;5047288;28;20945;-44
2021/11/07 14:07:22;;;;;;;1.37;1.27;;;15.90;57.80;;;;;;5051884;28;20526;-44
2021/11/07 14:10:21;;;;;;;1.60;1.37;;;15.80;57.50;;;;;;5048613;28;20439;-45
2021/11/07 14:12:55;;;;;;;3.70;1.20;;;15.90;57.30;;;;;;5048067;28;20443;-46
2021/11/07 14:15:25;;;;;;;1.10;1.00;;;15.90;57.10;;;;;;5047924;28;20490;-46
2021/11/07 14:17:54;;;;;;;6.00;1.33;;;15.90;56.80;;;;;;5037204;28;20439;-44
2021/11/07 14:20:56;;;;;;;1.80;1.20;;;16.00;56.70;;;;;;5039589;28;20463;-44
2021/11/07 14:23:31;;;;;;;1.20;1.10;;;15.90;56.30;;;;;;5021408;28;20447;-44
2021/11/07 14:26:16;;;;;;;1.50;1.40;;;15.90;56.30;;;;;;5049178;28;20451;-44
2021/11/07 14:31:34;;;;;;;1.43;1.23;;;15.80;56.00;;;;;;5037402;28;20436;-45
2021/11/07 14:34:09;;;;;;;1.43;1.33;;;15.70;56.20;;;;;;5052675;28;20939;-46
2021/11/07 14:39:44;;;;;;;1.30;1.20;;;15.80;55.80;;;;;;5035604;28;20431;-45
2021/11/07 14:42:26;;;;;;;1.73;1.30;;;15.80;55.80;;;;;;5043557;28;20451;-47
2021/11/07 14:45:29;;;;;;;2.00;0.80;;;15.80;56.00;;;;;;5042073;28;20853;-48
2021/11/07 14:48:16;;;;;;;1.07;1.07;;;15.40;56.50;;;;;;5043115;28;20442;-46
2021/11/07 15:00:19;;;;;;;1.70;1.27;;;15.30;57.90;;;;;;5042898;28;20911;-50
2021/11/07 15:05:42;;;;;;;1.23;0.90;;;15.50;58.00;;;;;;5043996;28;20880;-48
2021/11/07 15:08:30;;;;;;;1.30;1.03;;;15.50;57.80;;;;;;5042210;28;20506;-45
2021/11/07 15:11:12;;;;;;;1.10;1.00;;;15.40;57.90;;;;;;5047550;28;20442;-47
2021/11/07 15:21:46;;;;;;;3.50;1.27;;;15.50;59.00;;;;;;5049016;28;20450;-49
2021/11/07 15:24:25;;;;;;;1.47;1.37;;;15.30;59.00;;;;;;5046148;28;20948;-46
2021/11/07 15:26:58;;;;;;;1.97;1.40;;;15.50;59.10;;;;;;5034572;28;20455;-48
2021/11/07 15:29:45;;;;;;;5.70;1.43;;;15.50;59.00;;;;;;5046492;28;20465;-44
2021/11/07 15:32:16;;;;;;;4.20;1.40;;;15.40;59.10;;;;;;5049736;28;20538;-46
2021/11/07 15:34:45;;;;;;;3.83;2.00;;;15.30;59.30;;;;;;5045555;28;20963;-45
2021/11/07 15:37:24;;;;;;;1.57;1.30;;;15.20;59.50;;;;;;5076550;28;20443;-46
2021/11/07 15:39:52;;;;;;;1.77;1.37;;;15.20;59.40;;;;;;5041625;28;20462;-44
2021/11/07 15:42:26;;;;;;;2.70;1.80;;;15.30;59.40;;;;;;5044864;28;20434;-46
2021/11/07 15:44:57;;;;;;;1.30;1.20;;;15.40;59.20;;;;;;5042826;28;20538;-44
2021/11/07 15:47:29;;;;;;;1.70;1.60;;;15.50;59.20;;;;;;5045266;28;20843;-44
2021/11/07 15:55:11;;;;;;;1.40;1.30;;;15.40;59.60;;;;;;5041877;28;20731;-45
2021/11/07 15:57:46;;;;;;;2.37;1.40;;;15.30;59.70;;;;;;5039927;28;20205;-44
2021/11/07 16:03:28;;;;;;;2.17;1.50;;;15.10;59.80;;;;;;5033682;28;20482;-44
2021/11/07 16:10:54;;;;;;;1.63;1.53;;;14.80;61.60;;;;;;5048015;28;20435;-47